sensor_id;sensor_type;location;lat;lon;timestamp;pressure;altitude;pressure_sealevel;temperature;humidity
74921;BME280;63483;47.384;8.860;2023-09-08T00:01:21;94897.69;;;18.54;48.74
74921;BME280;63483;47.384;8.860;2023-09-08T00:03:47;94893.41;;;18.53;49.08
74921;BME280;63483;47.384;8.860;2023-09-08T00:06:12;94903.44;;;18.51;48.91
74921;BME280;63483;47.384;8.860;2023-09-08T00:08:37;94892.81;;;18.51;49.07
74921;BME280;63483;47.384;8.860;2023-09-08T00:11:03;94899.97;;;18.50;48.82
74921;BME280;63483;47.384;8.860;2023-09-08T00:13:29;94902.84;;;18.49;48.93
74921;BME280;63483;47.384;8.860;2023-09-08T00:15:55;94905.59;;;18.42;48.88
74921;BME280;63483;47.384;8.860;2023-09-08T00:18:20;94890.94;;;18.39;48.93
74921;BME280;63483;47.384;8.860;2023-09-08T00:20:45;94892.56;;;18.40;49.08
74921;BME280;63483;47.384;8.860;2023-09-08T00:23:11;94898.91;;;18.39;49.06
74921;BME280;63483;47.384;8.860;2023-09-08T00:25:36;94891.84;;;18.33;49.07
74921;BME280;63483;47.384;8.860;2023-09-08T00:28:01;94897.13;;;18.33;49.17
74921;BME280;63483;47.384;8.860;2023-09-08T00:30:28;94897.59;;;18.30;48.98
74921;BME280;63483;47.384;8.860;2023-09-08T00:32:53;94892.66;;;18.27;49.13
74921;BME280;63483;47.384;8.860;2023-09-08T00:35:19;94898.81;;;18.28;49.06
74921;BME280;63483;47.384;8.860;2023-09-08T00:37:44;94895.94;;;18.29;49.09
74921;BME280;63483;47.384;8.860;2023-09-08T00:40:09;94889.44;;;18.25;49.29
74921;BME280;63483;47.384;8.860;2023-09-08T00:42:35;94890.91;;;18.21;49.21
74921;BME280;63483;47.384;8.860;2023-09-08T00:45:01;94893.56;;;18.21;49.12
74921;BME280;63483;47.384;8.860;2023-09-08T00:47:26;94894.84;;;18.18;49.13
74921;BME280;63483;47.384;8.860;2023-09-08T00:49:52;94885.47;;;18.16;48.86
74921;BME280;63483;47.384;8.860;2023-09-08T00:52:17;94894.22;;;18.16;48.81
74921;BME280;63483;47.384;8.860;2023-09-08T00:54:42;94892.19;;;18.18;48.64
74921;BME280;63483;47.384;8.860;2023-09-08T00:57:09;94889.16;;;18.15;49.08
74921;BME280;63483;47.384;8.860;2023-09-08T00:59:35;94888.56;;;18.13;49.18
74921;BME280;63483;47.384;8.860;2023-09-08T01:02:01;94892.25;;;18.12;49.18
74921;BME280;63483;47.384;8.860;2023-09-08T01:04:27;94886.94;;;18.12;49.50
74921;BME280;63483;47.384;8.860;2023-09-08T01:06:53;94890.03;;;18.08;49.08
74921;BME280;63483;47.384;8.860;2023-09-08T01:09:19;94890.03;;;18.08;49.06
74921;BME280;63483;47.384;8.860;2023-09-08T01:11:45;94887.63;;;18.07;49.29
74921;BME280;63483;47.384;8.860;2023-09-08T01:14:13;94887.63;;;18.07;49.32
74921;BME280;63483;47.384;8.860;2023-09-08T01:16:42;94886.22;;;18.04;49.26
74921;BME280;63483;47.384;8.860;2023-09-08T01:19:12;94880.69;;;18.06;49.19
74921;BME280;63483;47.384;8.860;2023-09-08T01:24:26;94880.34;;;18.02;49.48
74921;BME280;63483;47.384;8.860;2023-09-08T01:26:55;94883.19;;;18.01;49.07
74921;BME280;63483;47.384;8.860;2023-09-08T01:29:21;94884.00;;;18.01;49.22
74921;BME280;63483;47.384;8.860;2023-09-08T01:31:49;94887.66;;;18.00;49.21
74921;BME280;63483;47.384;8.860;2023-09-08T01:34:15;94884.44;;;17.98;48.70
74921;BME280;63483;47.384;8.860;2023-09-08T01:36:41;94884.16;;;17.88;48.61
74921;BME280;63483;47.384;8.860;2023-09-08T01:39:06;94880.91;;;17.86;48.82
74921;BME280;63483;47.384;8.860;2023-09-08T01:41:31;94882.50;;;17.87;49.17
74921;BME280;63483;47.384;8.860;2023-09-08T01:43:57;94884.16;;;17.88;49.14
74921;BME280;63483;47.384;8.860;2023-09-08T01:46:23;94881.50;;;17.88;48.83
74921;BME280;63483;47.384;8.860;2023-09-08T01:48:48;94872.34;;;17.84;49.20
74921;BME280;63483;47.384;8.860;2023-09-08T01:51:14;94872.34;;;17.84;48.72
74921;BME280;63483;47.384;8.860;2023-09-08T01:53:39;94876.63;;;17.85;48.87
74921;BME280;63483;47.384;8.860;2023-09-08T01:56:04;94876.06;;;17.83;49.56
74921;BME280;63483;47.384;8.860;2023-09-08T01:58:30;94873.84;;;17.80;49.02
74921;BME280;63483;47.384;8.860;2023-09-08T02:00:57;94876.50;;;17.80;49.11
74921;BME280;63483;47.384;8.860;2023-09-08T02:03:26;94873.03;;;17.79;49.22
74921;BME280;63483;47.384;8.860;2023-09-08T02:05:51;94867.38;;;17.76;49.07
74921;BME280;63483;47.384;8.860;2023-09-08T02:08:17;94868.03;;;17.71;49.12
74921;BME280;63483;47.384;8.860;2023-09-08T02:10:42;94864.78;;;17.69;49.14
74921;BME280;63483;47.384;8.860;2023-09-08T02:13:07;94872.34;;;17.65;48.93
74921;BME280;63483;47.384;8.860;2023-09-08T02:15:35;94870.72;;;17.64;49.13
74921;BME280;63483;47.384;8.860;2023-09-08T02:18:01;94869.09;;;17.63;49.87
74921;BME280;63483;47.384;8.860;2023-09-08T02:20:26;94857.94;;;17.61;49.59
74921;BME280;63483;47.384;8.860;2023-09-08T02:22:53;94863.00;;;17.63;49.48
74921;BME280;63483;47.384;8.860;2023-09-08T02:25:19;94862.66;;;17.59;49.93
74921;BME280;63483;47.384;8.860;2023-09-08T02:27:44;94871.00;;;17.56;49.84
74921;BME280;63483;47.384;8.860;2023-09-08T02:30:10;94865.69;;;17.56;50.08
74921;BME280;63483;47.384;8.860;2023-09-08T02:32:35;94869.38;;;17.55;49.87
74921;BME280;63483;47.384;8.860;2023-09-08T02:35:00;94869.38;;;17.55;49.96
74921;BME280;63483;47.384;8.860;2023-09-08T02:37:26;94871.00;;;17.56;49.52
74921;BME280;63483;47.384;8.860;2023-09-08T02:39:51;94876.28;;;17.56;49.73
74921;BME280;63483;47.384;8.860;2023-09-08T02:42:16;94874.66;;;17.55;49.21
74921;BME280;63483;47.384;8.860;2023-09-08T02:44:42;94877.97;;;17.50;48.82
74921;BME280;63483;47.384;8.860;2023-09-08T02:47:08;94882.66;;;17.48;48.75
74921;BME280;63483;47.384;8.860;2023-09-08T02:49:33;94884.50;;;17.48;48.92
74921;BME280;63483;47.384;8.860;2023-09-08T02:51:58;94880.84;;;17.49;48.87
74921;BME280;63483;47.384;8.860;2023-09-08T02:54:24;94874.94;;;17.47;49.08
74921;BME280;63483;47.384;8.860;2023-09-08T02:56:49;94875.75;;;17.47;48.83
74921;BME280;63483;47.384;8.860;2023-09-08T02:59:14;94875.16;;;17.45;48.66
74921;BME280;63483;47.384;8.860;2023-09-08T03:01:40;94874.34;;;17.45;49.28
74921;BME280;63483;47.384;8.860;2023-09-08T03:04:05;94880.09;;;17.42;49.09
74921;BME280;63483;47.384;8.860;2023-09-08T03:06:30;94870.38;;;17.35;49.13
74921;BME280;63483;47.384;8.860;2023-09-08T03:08:58;94872.84;;;17.30;49.02
74921;BME280;63483;47.384;8.860;2023-09-08T03:11:23;94876.34;;;17.24;48.29
74921;BME280;63483;47.384;8.860;2023-09-08T03:13:49;94870.09;;;17.18;48.58
74921;BME280;63483;47.384;8.860;2023-09-08T03:16:14;94868.84;;;17.21;48.72
74921;BME280;63483;47.384;8.860;2023-09-08T03:18:39;94873.34;;;17.20;49.09
74921;BME280;63483;47.384;8.860;2023-09-08T03:21:05;94876.19;;;17.19;49.32
74921;BME280;63483;47.384;8.860;2023-09-08T03:23:43;94878.25;;;17.17;48.88
74921;BME280;63483;47.384;8.860;2023-09-08T03:26:09;94869.28;;;17.18;48.70
74921;BME280;63483;47.384;8.860;2023-09-08T03:28:35;94871.72;;;17.19;48.78
74921;BME280;63483;47.384;8.860;2023-09-08T03:31:02;94874.13;;;17.21;48.48
74921;BME280;63483;47.384;8.860;2023-09-08T03:33:27;94868.44;;;17.17;48.80
74921;BME280;63483;47.384;8.860;2023-09-08T03:35:53;94875.59;;;17.17;49.15
74921;BME280;63483;47.384;8.860;2023-09-08T03:38:18;94876.59;;;17.16;48.90
74921;BME280;63483;47.384;8.860;2023-09-08T03:40:44;94872.56;;;17.13;48.70
74921;BME280;63483;47.384;8.860;2023-09-08T03:43:09;94870.16;;;17.12;48.79
74921;BME280;63483;47.384;8.860;2023-09-08T03:45:35;94866.88;;;17.10;48.62
74921;BME280;63483;47.384;8.860;2023-09-08T03:48:00;94867.31;;;17.07;48.79
74921;BME280;63483;47.384;8.860;2023-09-08T03:50:25;94866.75;;;17.05;48.86
74921;BME280;63483;47.384;8.860;2023-09-08T03:52:51;94864.53;;;17.01;49.15
74921;BME280;63483;47.384;8.860;2023-09-08T03:55:16;94868.19;;;17.00;49.26
74921;BME280;63483;47.384;8.860;2023-09-08T03:57:42;94872.47;;;17.01;49.25
74921;BME280;63483;47.384;8.860;2023-09-08T04:00:08;94864.97;;;16.98;49.12
74921;BME280;63483;47.384;8.860;2023-09-08T04:02:35;94874.94;;;16.96;49.19
74921;BME280;63483;47.384;8.860;2023-09-08T04:05:00;94867.84;;;16.90;49.24
74921;BME280;63483;47.384;8.860;2023-09-08T04:07:26;94873.34;;;16.89;49.64
74921;BME280;63483;47.384;8.860;2023-09-08T04:09:51;94871.50;;;16.89;49.40
74921;BME280;63483;47.384;8.860;2023-09-08T04:12:16;94880.06;;;16.91;49.26
74921;BME280;63483;47.384;8.860;2023-09-08T04:14:41;94871.50;;;16.89;49.16
74921;BME280;63483;47.384;8.860;2023-09-08T04:17:07;94876.00;;;16.89;49.62
74921;BME280;63483;47.384;8.860;2023-09-08T04:19:33;94867.28;;;16.88;49.36
74921;BME280;63483;47.384;8.860;2023-09-08T04:21:58;94874.38;;;16.88;49.75
74921;BME280;63483;47.384;8.860;2023-09-08T04:24:23;94875.19;;;16.88;49.61
74921;BME280;63483;47.384;8.860;2023-09-08T04:26:49;94871.72;;;16.88;49.75
74921;BME280;63483;47.384;8.860;2023-09-08T04:29:14;94875.19;;;16.88;49.33
74921;BME280;63483;47.384;8.860;2023-09-08T04:31:40;94871.50;;;16.89;49.32
74921;BME280;63483;47.384;8.860;2023-09-08T04:34:05;94885.34;;;16.91;49.23
74921;BME280;63483;47.384;8.860;2023-09-08T04:36:30;94875.00;;;16.90;49.96
74921;BME280;63483;47.384;8.860;2023-09-08T04:38:56;94883.13;;;16.88;49.64
74921;BME280;63483;47.384;8.860;2023-09-08T04:41:21;94879.88;;;16.86;49.78
74921;BME280;63483;47.384;8.860;2023-09-08T04:43:47;94885.16;;;16.86;50.24
74921;BME280;63483;47.384;8.860;2023-09-08T04:46:12;94878.25;;;16.85;50.20
74921;BME280;63483;47.384;8.860;2023-09-08T04:48:37;94887.81;;;16.86;49.62
74921;BME280;63483;47.384;8.860;2023-09-08T04:51:03;94881.91;;;16.84;49.80
74921;BME280;63483;47.384;8.860;2023-09-08T04:53:28;94886.59;;;16.82;49.95
74921;BME280;63483;47.384;8.860;2023-09-08T04:55:53;94890.69;;;16.78;50.00
74921;BME280;63483;47.384;8.860;2023-09-08T04:58:19;94894.34;;;16.77;50.03
74921;BME280;63483;47.384;8.860;2023-09-08T05:00:44;94899.66;;;16.77;49.94
74921;BME280;63483;47.384;8.860;2023-09-08T05:03:10;94902.50;;;16.75;50.04
74921;BME280;63483;47.384;8.860;2023-09-08T05:05:35;94899.50;;;16.72;49.65
74921;BME280;63483;47.384;8.860;2023-09-08T05:08:00;94905.38;;;16.74;49.81
74921;BME280;63483;47.384;8.860;2023-09-08T05:10:26;94903.53;;;16.74;49.76
74921;BME280;63483;47.384;8.860;2023-09-08T05:12:51;94901.09;;;16.73;49.73
74921;BME280;63483;47.384;8.860;2023-09-08T05:15:17;94899.66;;;16.70;50.23
74921;BME280;63483;47.384;8.860;2023-09-08T05:17:45;94901.50;;;16.70;50.29
74921;BME280;63483;47.384;8.860;2023-09-08T05:20:10;94898.88;;;16.70;50.37
74921;BME280;63483;47.384;8.860;2023-09-08T05:22:36;94902.53;;;16.68;50.37
74921;BME280;63483;47.384;8.860;2023-09-08T05:25:02;94904.16;;;16.70;50.06
74921;BME280;63483;47.384;8.860;2023-09-08T05:27:27;94904.38;;;16.68;50.25
74921;BME280;63483;47.384;8.860;2023-09-08T05:29:52;94906.22;;;16.67;50.45
74921;BME280;63483;47.384;8.860;2023-09-08T05:32:18;94900.94;;;16.67;50.19
74921;BME280;63483;47.384;8.860;2023-09-08T05:34:43;94917.59;;;16.68;50.34
74921;BME280;63483;47.384;8.860;2023-09-08T05:37:09;94912.53;;;16.66;50.44
74921;BME280;63483;47.384;8.860;2023-09-08T05:39:34;94914.16;;;16.67;50.97
74921;BME280;63483;47.384;8.860;2023-09-08T05:42:00;94913.31;;;16.67;50.45
74921;BME280;63483;47.384;8.860;2023-09-08T05:44:25;94916.19;;;16.65;50.88
74921;BME280;63483;47.384;8.860;2023-09-08T05:46:50;94913.31;;;16.67;51.06
74921;BME280;63483;47.384;8.860;2023-09-08T05:49:15;94918.81;;;16.65;51.00
74921;BME280;63483;47.384;8.860;2023-09-08T05:51:43;94917.22;;;16.64;51.02
74921;BME280;63483;47.384;8.860;2023-09-08T05:54:08;94914.16;;;16.67;51.24
74921;BME280;63483;47.384;8.860;2023-09-08T05:56:34;94902.53;;;16.68;50.93
74921;BME280;63483;47.384;8.860;2023-09-08T05:58:59;94925.31;;;16.70;51.06
74921;BME280;63483;47.384;8.860;2023-09-08T06:01:26;94920.81;;;16.70;51.04
74921;BME280;63483;47.384;8.860;2023-09-08T06:03:52;94925.09;;;16.71;51.26
74921;BME280;63483;47.384;8.860;2023-09-08T06:06:19;94922.25;;;16.73;51.42
74921;BME280;63483;47.384;8.860;2023-09-08T06:08:44;94926.94;;;16.71;51.93
74921;BME280;63483;47.384;8.860;2023-09-08T06:11:10;94925.09;;;16.71;51.85
74921;BME280;63483;47.384;8.860;2023-09-08T06:13:35;94931.22;;;16.72;51.72
74921;BME280;63483;47.384;8.860;2023-09-08T06:16:00;94926.53;;;16.74;52.08
74921;BME280;63483;47.384;8.860;2023-09-08T06:18:28;94924.88;;;16.73;52.14
74921;BME280;63483;47.384;8.860;2023-09-08T06:20:53;94922.88;;;16.75;52.19
74921;BME280;63483;47.384;8.860;2023-09-08T06:23:20;94924.03;;;16.79;51.92
74921;BME280;63483;47.384;8.860;2023-09-08T06:25:45;94927.72;;;16.78;52.43
74921;BME280;63483;47.384;8.860;2023-09-08T06:28:10;94926.69;;;16.79;52.64
74921;BME280;63483;47.384;8.860;2023-09-08T06:30:36;94921.19;;;16.80;52.73
74921;BME280;63483;47.384;8.860;2023-09-08T06:33:01;94919.94;;;16.83;52.52
74921;BME280;63483;47.384;8.860;2023-09-08T06:35:26;94913.47;;;16.85;52.85
74921;BME280;63483;47.384;8.860;2023-09-08T06:37:52;94926.47;;;16.87;53.03
74921;BME280;63483;47.384;8.860;2023-09-08T06:40:17;94915.91;;;16.87;53.11
74921;BME280;63483;47.384;8.860;2023-09-08T06:42:42;94920.75;;;16.90;53.19
74921;BME280;63483;47.384;8.860;2023-09-08T06:45:08;94920.31;;;16.93;53.18
74921;BME280;63483;47.384;8.860;2023-09-08T06:47:34;94921.13;;;16.94;52.89
74921;BME280;63483;47.384;8.860;2023-09-08T06:49:59;94923.56;;;16.95;53.15
74921;BME280;63483;47.384;8.860;2023-09-08T06:52:24;94920.13;;;16.95;53.53
74921;BME280;63483;47.384;8.860;2023-09-08T06:54:50;94923.56;;;16.95;53.96
74921;BME280;63483;47.384;8.860;2023-09-08T06:57:18;94925.81;;;16.98;54.21
74921;BME280;63483;47.384;8.860;2023-09-08T06:59:44;94921.09;;;17.00;54.32
74921;BME280;63483;47.384;8.860;2023-09-08T07:02:09;94922.31;;;17.05;54.63
74921;BME280;63483;47.384;8.860;2023-09-08T07:04:34;94915.75;;;17.07;54.47
74921;BME280;63483;47.384;8.860;2023-09-08T07:06:59;94923.88;;;17.12;54.79
74921;BME280;63483;47.384;8.860;2023-09-08T07:09:28;94925.66;;;17.18;55.09
74921;BME280;63483;47.384;8.860;2023-09-08T07:11:54;94923.56;;;17.27;55.17
74921;BME280;63483;47.384;8.860;2023-09-08T07:14:19;94924.91;;;17.36;55.27
74921;BME280;63483;47.384;8.860;2023-09-08T07:16:44;94925.66;;;17.44;55.52
74921;BME280;63483;47.384;8.860;2023-09-08T07:19:10;94926.66;;;17.49;55.71
74921;BME280;63483;47.384;8.860;2023-09-08T07:21:35;94924.97;;;17.55;56.01
74921;BME280;63483;47.384;8.860;2023-09-08T07:24:00;94928.84;;;17.59;56.17
74921;BME280;63483;47.384;8.860;2023-09-08T07:26:25;94927.75;;;17.67;55.80
74921;BME280;63483;47.384;8.860;2023-09-08T07:28:51;94920.56;;;17.74;56.17
74921;BME280;63483;47.384;8.860;2023-09-08T07:31:16;94925.78;;;17.81;56.01
74921;BME280;63483;47.384;8.860;2023-09-08T07:33:41;94928.16;;;17.89;56.17
74921;BME280;63483;47.384;8.860;2023-09-08T07:36:08;94923.16;;;17.99;56.45
74921;BME280;63483;47.384;8.860;2023-09-08T07:38:33;94920.06;;;18.02;56.70
74921;BME280;63483;47.384;8.860;2023-09-08T07:41:00;94918.16;;;18.10;56.64
74921;BME280;63483;47.384;8.860;2023-09-08T07:43:26;94914.41;;;18.17;56.53
74921;BME280;63483;47.384;8.860;2023-09-08T07:45:52;94912.28;;;18.26;56.55
74921;BME280;63483;47.384;8.860;2023-09-08T07:48:17;94922.59;;;18.34;56.23
74921;BME280;63483;47.384;8.860;2023-09-08T07:50:42;94921.28;;;18.44;56.43
74921;BME280;63483;47.384;8.860;2023-09-08T07:53:08;94920.38;;;18.50;56.72
74921;BME280;63483;47.384;8.860;2023-09-08T07:55:33;94925.81;;;18.55;56.57
74921;BME280;63483;47.384;8.860;2023-09-08T07:58:00;94928.19;;;18.63;56.53
74921;BME280;63483;47.384;8.860;2023-09-08T08:00:26;94922.09;;;18.74;56.55
74921;BME280;63483;47.384;8.860;2023-09-08T08:02:54;94916.50;;;18.83;56.57
74921;BME280;63483;47.384;8.860;2023-09-08T08:05:20;94924.16;;;18.91;56.64
74921;BME280;63483;47.384;8.860;2023-09-08T08:07:45;94924.00;;;19.04;56.52
74921;BME280;63483;47.384;8.860;2023-09-08T08:10:11;94915.69;;;19.12;56.37
74921;BME280;63483;47.384;8.860;2023-09-08T08:12:41;94914.19;;;19.17;56.18
74921;BME280;63483;47.384;8.860;2023-09-08T08:15:07;94920.78;;;19.26;56.22
74921;BME280;63483;47.384;8.860;2023-09-08T08:17:34;94928.91;;;19.31;56.11
74921;BME280;63483;47.384;8.860;2023-09-08T08:20:02;94925.88;;;19.39;56.09
74921;BME280;63483;47.384;8.860;2023-09-08T08:22:32;94923.16;;;19.46;55.70
74921;BME280;63483;47.384;8.860;2023-09-08T08:24:58;94923.16;;;19.58;55.92
74921;BME280;63483;47.384;8.860;2023-09-08T08:27:23;94927.31;;;19.65;55.86
74921;BME280;63483;47.384;8.860;2023-09-08T08:29:48;94925.59;;;19.59;56.28
74921;BME280;63483;47.384;8.860;2023-09-08T08:32:14;94926.88;;;19.69;56.25
74921;BME280;63483;47.384;8.860;2023-09-08T08:34:39;94925.25;;;19.79;56.64
74921;BME280;63483;47.384;8.860;2023-09-08T08:37:04;94929.78;;;19.91;56.62
74921;BME280;63483;47.384;8.860;2023-09-08T08:39:30;94928.97;;;20.02;56.23
74921;BME280;63483;47.384;8.860;2023-09-08T08:41:55;94925.38;;;20.08;56.08
74921;BME280;63483;47.384;8.860;2023-09-08T08:44:20;94918.75;;;20.23;54.79
74921;BME280;63483;47.384;8.860;2023-09-08T08:46:46;94923.63;;;20.26;55.31
74921;BME280;63483;47.384;8.860;2023-09-08T08:49:14;94928.69;;;20.39;54.60
74921;BME280;63483;47.384;8.860;2023-09-08T08:51:42;94921.97;;;20.48;53.66
74921;BME280;63483;47.384;8.860;2023-09-08T08:54:11;94929.91;;;20.60;53.80
74921;BME280;63483;47.384;8.860;2023-09-08T08:56:36;94928.47;;;20.69;54.68
74921;BME280;63483;47.384;8.860;2023-09-08T08:59:02;94929.94;;;20.77;54.09
74921;BME280;63483;47.384;8.860;2023-09-08T09:01:28;94926.94;;;20.85;54.02
74921;BME280;63483;47.384;8.860;2023-09-08T09:03:54;94922.81;;;20.95;53.11
74921;BME280;63483;47.384;8.860;2023-09-08T09:06:20;94921.34;;;20.99;52.10
74921;BME280;63483;47.384;8.860;2023-09-08T09:08:46;94926.84;;;21.09;48.21
74921;BME280;63483;47.384;8.860;2023-09-08T09:11:12;94924.75;;;21.11;48.90
74921;BME280;63483;47.384;8.860;2023-09-08T09:13:38;94918.94;;;21.14;48.09
74921;BME280;63483;47.384;8.860;2023-09-08T09:16:03;94920.06;;;21.18;48.21
74921;BME280;63483;47.384;8.860;2023-09-08T09:18:30;94919.44;;;21.28;48.82
74921;BME280;63483;47.384;8.860;2023-09-08T09:21:00;94922.53;;;21.37;48.68
74921;BME280;63483;47.384;8.860;2023-09-08T09:23:33;94921.31;;;21.45;49.22
74921;BME280;63483;47.384;8.860;2023-09-08T09:26:00;94911.06;;;21.53;49.83
74921;BME280;63483;47.384;8.860;2023-09-08T09:28:28;94918.81;;;21.55;47.52
74921;BME280;63483;47.384;8.860;2023-09-08T09:30:53;94914.63;;;21.59;47.48
74921;BME280;63483;47.384;8.860;2023-09-08T09:33:22;94913.97;;;21.69;47.75
74921;BME280;63483;47.384;8.860;2023-09-08T09:35:51;94917.03;;;21.78;47.72
74921;BME280;63483;47.384;8.860;2023-09-08T09:38:18;94907.00;;;21.85;47.49
74921;BME280;63483;47.384;8.860;2023-09-08T09:40:44;94907.34;;;21.88;48.18
74921;BME280;63483;47.384;8.860;2023-09-08T09:43:10;94911.06;;;21.87;46.93
74921;BME280;63483;47.384;8.860;2023-09-08T09:45:37;94913.47;;;21.89;46.42
74921;BME280;63483;47.384;8.860;2023-09-08T09:48:03;94918.38;;;21.97;46.08
74921;BME280;63483;47.384;8.860;2023-09-08T09:50:33;94909.91;;;22.00;46.59
74921;BME280;63483;47.384;8.860;2023-09-08T09:53:03;94911.25;;;22.03;45.93
74921;BME280;63483;47.384;8.860;2023-09-08T09:55:33;94913.13;;;22.02;46.47
74921;BME280;63483;47.384;8.860;2023-09-08T09:57:59;94918.28;;;22.09;45.75
74921;BME280;63483;47.384;8.860;2023-09-08T10:00:29;94918.09;;;22.16;46.23
74921;BME280;63483;47.384;8.860;2023-09-08T10:02:55;94916.56;;;22.20;45.58
74921;BME280;63483;47.384;8.860;2023-09-08T10:05:22;94923.34;;;22.28;45.61
74921;BME280;63483;47.384;8.860;2023-09-08T10:07:48;94907.72;;;22.36;45.67
74921;BME280;63483;47.384;8.860;2023-09-08T10:10:15;94903.50;;;22.40;45.49
74921;BME280;63483;47.384;8.860;2023-09-08T10:12:43;94905.47;;;22.50;45.96
74921;BME280;63483;47.384;8.860;2023-09-08T10:15:10;94912.47;;;22.56;45.93
74921;BME280;63483;47.384;8.860;2023-09-08T10:17:36;94902.38;;;22.58;45.50
74921;BME280;63483;47.384;8.860;2023-09-08T10:20:02;94909.34;;;22.59;44.65
74921;BME280;63483;47.384;8.860;2023-09-08T10:22:38;94903.00;;;22.66;44.83
74921;BME280;63483;47.384;8.860;2023-09-08T10:25:08;94907.00;;;22.68;44.50
74921;BME280;63483;47.384;8.860;2023-09-08T10:27:33;94907.34;;;22.72;43.43
74921;BME280;63483;47.384;8.860;2023-09-08T10:30:02;94905.03;;;22.81;44.41
74921;BME280;63483;47.384;8.860;2023-09-08T10:32:29;94903.66;;;22.78;44.58
74921;BME280;63483;47.384;8.860;2023-09-08T10:34:56;94904.31;;;22.85;43.57
74921;BME280;63483;47.384;8.860;2023-09-08T10:37:24;94899.56;;;22.92;43.89
74921;BME280;63483;47.384;8.860;2023-09-08T10:40:23;94893.72;;;22.95;44.74
74921;BME280;63483;47.384;8.860;2023-09-08T10:42:49;94899.41;;;23.04;44.11
74921;BME280;63483;47.384;8.860;2023-09-08T10:45:17;94894.09;;;23.09;43.10
74921;BME280;63483;47.384;8.860;2023-09-08T10:50:26;94892.81;;;23.12;42.80
74921;BME280;63483;47.384;8.860;2023-09-08T10:53:06;94889.41;;;23.22;43.46
74921;BME280;63483;47.384;8.860;2023-09-08T10:55:45;94890.50;;;23.26;43.49
74921;BME280;63483;47.384;8.860;2023-09-08T10:58:30;94883.81;;;23.23;42.51
74921;BME280;63483;47.384;8.860;2023-09-08T11:00:59;94874.28;;;23.33;42.43
74921;BME280;63483;47.384;8.860;2023-09-08T11:03:46;94881.50;;;23.32;42.67
74921;BME280;63483;47.384;8.860;2023-09-08T11:06:18;94882.31;;;23.38;41.50
74921;BME280;63483;47.384;8.860;2023-09-08T11:08:45;94881.25;;;23.39;40.40
74921;BME280;63483;47.384;8.860;2023-09-08T11:11:11;94878.69;;;23.44;41.28
74921;BME280;63483;47.384;8.860;2023-09-08T11:13:37;94882.41;;;23.43;41.70
74921;BME280;63483;47.384;8.860;2023-09-08T11:16:05;94873.34;;;23.44;42.57
74921;BME280;63483;47.384;8.860;2023-09-08T11:18:30;94877.13;;;23.53;41.69
74921;BME280;63483;47.384;8.860;2023-09-08T11:20:56;94869.97;;;23.59;41.61
74921;BME280;63483;47.384;8.860;2023-09-08T11:23:23;94874.78;;;23.62;42.27
74921;BME280;63483;47.384;8.860;2023-09-08T11:25:50;94875.03;;;23.60;42.59
74921;BME280;63483;47.384;8.860;2023-09-08T11:28:16;94884.13;;;23.64;42.91
74921;BME280;63483;47.384;8.860;2023-09-08T11:30:42;94878.78;;;23.64;41.79
74921;BME280;63483;47.384;8.860;2023-09-08T11:33:14;94876.63;;;23.61;41.23
74921;BME280;63483;47.384;8.860;2023-09-08T11:35:39;94880.97;;;23.68;41.18
74921;BME280;63483;47.384;8.860;2023-09-08T11:38:05;94877.81;;;23.76;40.85
74921;BME280;63483;47.384;8.860;2023-09-08T11:40:30;94872.44;;;23.71;39.77
74921;BME280;63483;47.384;8.860;2023-09-08T11:42:56;94878.31;;;23.73;40.56
74921;BME280;63483;47.384;8.860;2023-09-08T11:45:21;94879.31;;;23.99;38.52
74921;BME280;63483;47.384;8.860;2023-09-08T11:47:48;94872.56;;;23.91;37.92
74921;BME280;63483;47.384;8.860;2023-09-08T11:50:18;94876.28;;;23.90;38.72
74921;BME280;63483;47.384;8.860;2023-09-08T11:52:45;94869.91;;;23.96;39.94
74921;BME280;63483;47.384;8.860;2023-09-08T11:55:11;94873.72;;;24.06;39.85
74921;BME280;63483;47.384;8.860;2023-09-08T11:57:39;94868.97;;;24.18;39.91
74921;BME280;63483;47.384;8.860;2023-09-08T12:00:05;94875.13;;;24.24;38.69
74921;BME280;63483;47.384;8.860;2023-09-08T12:02:35;94872.75;;;24.32;38.84
74921;BME280;63483;47.384;8.860;2023-09-08T12:05:01;94869.59;;;24.41;39.04
74921;BME280;63483;47.384;8.860;2023-09-08T12:07:26;94865.34;;;24.45;38.67
74921;BME280;63483;47.384;8.860;2023-09-08T12:09:52;94866.41;;;24.49;37.45
74921;BME280;63483;47.384;8.860;2023-09-08T12:12:17;94865.06;;;24.51;39.01
74921;BME280;63483;47.384;8.860;2023-09-08T12:14:43;94856.78;;;24.53;38.50
74921;BME280;63483;47.384;8.860;2023-09-08T12:17:08;94866.16;;;24.50;37.68
74921;BME280;63483;47.384;8.860;2023-09-08T12:19:34;94857.56;;;24.48;37.84
74921;BME280;63483;47.384;8.860;2023-09-08T12:22:03;94849.84;;;24.52;37.43
74921;BME280;63483;47.384;8.860;2023-09-08T12:24:48;94851.16;;;24.49;37.60
74921;BME280;63483;47.384;8.860;2023-09-08T12:27:15;94850.66;;;24.58;38.41
74921;BME280;63483;47.384;8.860;2023-09-08T12:29:51;94842.88;;;24.56;37.37
74921;BME280;63483;47.384;8.860;2023-09-08T12:32:16;94852.81;;;24.61;37.10
74921;BME280;63483;47.384;8.860;2023-09-08T12:34:41;94848.25;;;24.66;37.57
74921;BME280;63483;47.384;8.860;2023-09-08T12:37:07;94849.88;;;24.73;36.77
74921;BME280;63483;47.384;8.860;2023-09-08T12:39:32;94838.13;;;24.68;36.86
74921;BME280;63483;47.384;8.860;2023-09-08T12:41:57;94853.09;;;24.69;36.80
74921;BME280;63483;47.384;8.860;2023-09-08T12:44:23;94847.22;;;24.67;35.62
74921;BME280;63483;47.384;8.860;2023-09-08T12:46:48;94844.28;;;24.79;35.49
74921;BME280;63483;47.384;8.860;2023-09-08T12:49:14;94834.38;;;24.80;34.90
74921;BME280;63483;47.384;8.860;2023-09-08T12:51:39;94838.16;;;24.89;34.54
74921;BME280;63483;47.384;8.860;2023-09-08T12:54:05;94831.94;;;24.68;35.68
74921;BME280;63483;47.384;8.860;2023-09-08T12:56:30;94821.00;;;24.85;34.63
74921;BME280;63483;47.384;8.860;2023-09-08T12:58:55;94831.72;;;24.95;35.91
74921;BME280;63483;47.384;8.860;2023-09-08T13:01:21;94824.22;;;24.97;36.83